Time;durP1;ratioP1;P1;durP2;ratioP2;P2;SDS_P1;SDS_P2;PMS_P1;PMS_P2;Temp;Humidity;BMP_temperature;BMP_pressure;BME280_temperature;BME280_humidity;BME280_pressure;Samples;Min_cycle;Max_cycle;Signal;HPM_P1;HPM_P2
2021/08/27 00:02:19;;;;;;;;;;;;;;;11.57;100.00;100243.44;5071767;28;19928;-63
2021/08/27 00:04:46;;;;;;;;;;;;;;;11.56;100.00;100239.03;5072136;28;20018;-63
2021/08/27 00:07:12;;;;;;;;;;;;;;;11.57;100.00;100243.44;5072063;28;19925;-63
2021/08/27 00:09:38;;;;;;;;;;;;;;;11.57;100.00;100238.00;5071654;28;20337;-63
2021/08/27 00:12:05;;;;;;;;;;;;;;;11.57;100.00;100238.00;5071834;28;20470;-63
2021/08/27 00:14:32;;;;;;;;;;;;;;;11.59;100.00;100243.31;5071659;28;19982;-63
2021/08/27 00:16:58;;;;;;;;;;;;;;;11.59;100.00;100237.88;5071531;28;20011;-70
2021/08/27 00:19:25;;;;;;;;;;;;;;;11.60;100.00;100236.84;5071851;28;19924;-70
2021/08/27 00:21:52;;;;;;;;;;;;;;;11.58;100.00;100234.28;5071742;28;20027;-70
2021/08/27 00:24:18;;;;;;;;;;;;;;;11.59;100.00;100230.56;5070787;28;19928;-70
2021/08/27 00:26:44;;;;;;;;;;;;;;;11.58;100.00;100233.44;5071282;28;20018;-70
2021/08/27 00:29:11;;;;;;;;;;;;;;;11.57;100.00;100229.84;5053639;28;19950;-70
2021/08/27 00:31:37;;;;;;;;;;;;;;;11.56;100.00;100234.44;5071483;28;19924;-70
2021/08/27 00:34:03;;;;;;;;;;;;;;;11.58;100.00;100228.84;5071108;28;20258;-70
2021/08/27 00:36:31;;;;;;;;;;;;;;;11.58;100.00;100222.56;5071387;28;19925;-70
2021/08/27 00:38:57;;;;;;;;;;;;;;;11.55;100.00;100224.53;5071297;28;20022;-70
2021/08/27 00:41:23;;;;;;;;;;;;;;;11.55;100.00;100229.97;5071509;28;19930;-70
2021/08/27 00:43:49;;;;;;;;;;;;;;;11.55;100.00;100224.53;5071066;28;20360;-70
2021/08/27 00:46:16;;;;;;;;;;;;;;;11.55;100.00;100224.53;5071260;28;20304;-70
2021/08/27 00:48:42;;;;;;;;;;;;;;;11.55;100.00;100216.41;5071157;28;19928;-70
2021/08/27 00:51:08;;;;;;;;;;;;;;;11.56;100.00;100209.97;5071273;28;20015;-70
2021/08/27 00:53:36;;;;;;;;;;;;;;;11.58;100.00;100217.13;5070821;28;19925;-70
2021/08/27 00:56:02;;;;;;;;;;;;;;;11.55;100.00;100219.13;5071308;28;20099;-70
2021/08/27 00:58:29;;;;;;;;;;;;;;;11.52;100.00;100215.84;5070958;28;19924;-70
2021/08/27 01:00:55;;;;;;;;;;;;;;;11.52;100.00;100208.53;5071037;28;20362;-63
2021/08/27 01:03:22;;;;;;;;;;;;;;;11.54;100.00;100205.66;5071049;28;19932;-63
2021/08/27 01:05:52;;;;;;;;;;;;;;;11.54;100.00;100206.53;5071146;28;20019;-63
2021/08/27 01:08:21;;;;;;;;;;;;;;;11.58;100.00;100211.69;5071010;28;20019;-63
2021/08/27 01:10:53;;;;;;;;;;;;;;;11.55;100.00;100210.97;5070853;28;19960;-63
2021/08/27 01:13:21;;;;;;;;;;;;;;;11.53;100.00;100215.69;5071004;28;19964;-66
2021/08/27 01:15:50;;;;;;;;;;;;;;;11.53;100.00;100207.53;5070684;28;20311;-66
2021/08/27 01:18:20;;;;;;;;;;;;;;;11.53;100.00;100218.41;5071373;28;20018;-67
2021/08/27 01:20:58;;;;;;;;;;;;;;;11.54;100.00;100220.13;5070864;28;19935;-67
2021/08/27 01:23:34;;;;;;;;;;;;;;;11.52;100.00;100219.41;5071033;28;20020;-66
2021/08/27 01:26:03;;;;;;;;;;;;;;;11.51;100.00;100217.69;5071041;28;19924;-64
2021/08/27 01:28:30;;;;;;;;;;;;;;;11.52;100.00;100213.97;5070438;28;20015;-64
2021/08/27 01:31:03;;;;;;;;;;;;;;;11.53;100.00;100218.41;5071011;28;20427;-64
2021/08/27 01:33:31;;;;;;;;;;;;;;;11.50;100.00;100210.53;5070772;28;20019;-63
2021/08/27 01:36:00;;;;;;;;;;;;;;;11.48;100.00;100220.69;5073524;28;20031;-63
2021/08/27 01:38:29;;;;;;;;;;;;;;;11.49;100.00;100218.81;5074536;28;19960;-63
2021/08/27 01:40:56;;;;;;;;;;;;;;;11.50;100.00;100215.97;5074832;28;20023;-63
2021/08/27 01:43:23;;;;;;;;;;;;;;;11.51;100.00;100216.84;5074754;28;19951;-67
2021/08/27 01:45:50;;;;;;;;;;;;;;;11.49;100.00;100221.53;5074253;28;20463;-67
2021/08/27 01:48:17;;;;;;;;;;;;;;;11.51;100.00;100219.56;5074638;28;19963;-67
2021/08/27 01:50:44;;;;;;;;;;;;;;;11.55;100.00;100216.41;5074475;28;20023;-67
2021/08/27 01:53:12;;;;;;;;;;;;;;;11.51;100.00;100217.69;5074357;28;19979;-67
2021/08/27 01:55:39;;;;;;;;;;;;;;;11.53;100.00;100218.41;5074348;28;20027;-68
2021/08/27 01:58:06;;;;;;;;;;;;;;;11.52;100.00;100213.97;5074296;28;20028;-67
2021/08/27 02:00:32;;;;;;;;;;;;;;;11.57;100.00;100227.13;5074313;28;20019;-67
2021/08/27 02:02:59;;;;;;;;;;;;;;;11.61;100.00;100225.84;5056001;28;19963;-68
2021/08/27 02:05:25;;;;;;;;;;;;;;;11.58;100.00;100223.41;5074381;28;20027;-71
2021/08/27 02:07:52;;;;;;;;;;;;;;;11.59;100.00;100225.13;5073902;28;20023;-71
2021/08/27 02:10:20;;;;;;;;;;;;;;;11.63;100.00;100221.13;5074286;28;20023;-64
2021/08/27 02:12:46;;;;;;;;;;;;;;;11.64;100.00;100225.56;5074204;28;20014;-71
2021/08/27 02:15:13;;;;;;;;;;;;;;;11.61;100.00;100222.25;5074323;28;20336;-71
2021/08/27 02:17:40;;;;;;;;;;;;;;;11.64;100.00;100222.00;5074043;28;19967;-63
2021/08/27 02:20:07;;;;;;;;;;;;;;;11.64;100.00;100213.84;5073972;28;19931;-63
2021/08/27 02:22:33;;;;;;;;;;;;;;;11.67;100.00;100213.53;5073892;28;20015;-63
2021/08/27 02:25:03;;;;;;;;;;;;;;;11.62;100.00;100210.41;5073795;28;19935;-64
2021/08/27 02:27:31;;;;;;;;;;;;;;;11.62;100.00;100202.25;5073611;28;20295;-64
2021/08/27 02:29:58;;;;;;;;;;;;;;;11.60;100.00;100205.09;5073976;28;20032;-64
2021/08/27 02:32:26;;;;;;;;;;;;;;;11.61;100.00;100205.94;5073743;28;20375;-63
2021/08/27 02:34:52;;;;;;;;;;;;;;;11.61;100.00;100209.53;5073668;28;20363;-66
2021/08/27 02:37:20;;;;;;;;;;;;;;;11.61;100.00;100206.84;5073566;28;20336;-67
2021/08/27 02:39:46;;;;;;;;;;;;;;;11.63;100.00;100207.53;5073479;28;19928;-67
2021/08/27 02:42:13;;;;;;;;;;;;;;;11.62;100.00;100208.53;5073692;28;20032;-67
2021/08/27 02:44:41;;;;;;;;;;;;;;;11.62;100.00;100219.41;5073344;28;19928;-67
2021/08/27 02:47:07;;;;;;;;;;;;;;;11.64;100.00;100205.69;5072940;28;19963;-67
2021/08/27 02:49:33;;;;;;;;;;;;;;;11.62;100.00;100208.53;5073394;28;19924;-71
2021/08/27 02:52:04;;;;;;;;;;;;;;;11.61;100.00;100205.94;5073552;28;20023;-70
2021/08/27 02:54:32;;;;;;;;;;;;;;;11.57;100.00;100202.66;5073439;28;20027;-70
2021/08/27 02:57:02;;;;;;;;;;;;;;;11.54;100.00;100202.94;5073066;28;19963;-71
2021/08/27 02:59:29;;;;;;;;;;;;;;;11.52;100.00;100196.81;5073301;28;19946;-71
2021/08/27 03:01:57;;;;;;;;;;;;;;;11.54;100.00;100206.53;5073133;28;20480;-70
2021/08/27 03:04:28;;;;;;;;;;;;;;;11.55;100.00;100201.97;5072779;28;19971;-68
2021/08/27 03:06:56;;;;;;;;;;;;;;;11.56;100.00;100199.09;5073247;28;20340;-68
2021/08/27 03:09:24;;;;;;;;;;;;;;;11.58;100.00;100200.81;5073191;28;20289;-67
2021/08/27 03:11:54;;;;;;;;;;;;;;;11.61;100.00;100198.69;5073061;28;20039;-68
2021/08/27 03:14:23;;;;;;;;;;;;;;;11.58;100.00;100198.09;5072873;28;20277;-67
2021/08/27 03:16:52;;;;;;;;;;;;;;;11.56;100.00;100198.25;5072581;28;20010;-67
2021/08/27 03:19:22;;;;;;;;;;;;;;;11.57;100.00;100194.50;5072801;28;19924;-71
2021/08/27 03:21:52;;;;;;;;;;;;;;;11.56;100.00;100199.09;5072842;28;20022;-71
2021/08/27 03:24:20;;;;;;;;;;;;;;;11.53;100.00;100195.78;5072719;28;20027;-71
2021/08/27 03:26:48;;;;;;;;;;;;;;;11.55;100.00;100191.94;5072568;28;20217;-71
2021/08/27 03:29:16;;;;;;;;;;;;;;;11.51;100.00;100190.50;5073116;28;20039;-71
2021/08/27 03:31:42;;;;;;;;;;;;;;;11.53;100.00;100193.94;5072370;28;19928;-71
2021/08/27 03:34:09;;;;;;;;;;;;;;;11.52;100.00;100194.09;5072670;28;19932;-71
2021/08/27 03:36:39;;;;;;;;;;;;;;;11.53;100.00;100195.78;5072059;28;19924;-71
2021/08/27 03:39:06;;;;;;;;;;;;;;;11.53;100.00;100188.50;5072525;28;19925;-71
2021/08/27 03:41:35;;;;;;;;;;;;;;;11.57;100.00;100191.78;5072544;28;19959;-71
2021/08/27 03:44:01;;;;;;;;;;;;;;;11.59;100.00;100188.94;5072152;28;20461;-70
2021/08/27 03:46:28;;;;;;;;;;;;;;;11.56;100.00;100195.53;5072190;28;19928;-63
2021/08/27 03:48:55;;;;;;;;;;;;;;;11.54;100.00;100198.41;5072126;28;20403;-63
2021/08/27 03:51:21;;;;;;;;;;;;;;;11.54;100.00;100198.41;5072384;28;19939;-63
2021/08/27 03:53:50;;;;;;;;;;;;;;;11.54;100.00;100192.97;5071855;28;19978;-63
2021/08/27 03:56:17;;;;;;;;;;;;;;;11.56;100.00;100207.25;5072069;28;19924;-63
2021/08/27 03:58:44;;;;;;;;;;;;;;;11.57;100.00;100197.22;5071910;28;20015;-63
2021/08/27 04:01:10;;;;;;;;;;;;;;;11.58;100.00;100196.22;5072042;28;20023;-63
2021/08/27 04:03:37;;;;;;;;;;;;;;;11.62;100.00;100202.25;5072042;28;20015;-63
2021/08/27 04:06:04;;;;;;;;;;;;;;;11.62;100.00;100202.25;5072035;28;19960;-63
2021/08/27 04:08:32;;;;;;;;;;;;;;;11.59;100.00;100195.22;5071936;28;19956;-68
2021/08/27 04:10:59;;;;;;;;;;;;;;;11.61;100.00;100201.41;5072197;28;20186;-64
2021/08/27 04:13:26;;;;;;;;;;;;;;;11.62;100.00;100203.09;5071712;28;20020;-63
2021/08/27 04:15:52;;;;;;;;;;;;;;;11.64;100.00;100197.53;5053913;28;19979;-63
2021/08/27 04:18:18;;;;;;;;;;;;;;;11.65;100.00;100199.22;5071849;28;20360;-63
2021/08/27 04:20:45;;;;;;;;;;;;;;;11.64;100.00;100198.38;5071848;28;20027;-63
2021/08/27 04:23:11;;;;;;;;;;;;;;;11.67;100.00;100194.50;5071819;28;20019;-63
2021/08/27 04:25:37;;;;;;;;;;;;;;;11.67;100.00;100203.50;5071035;28;19960;-63
2021/08/27 04:28:05;;;;;;;;;;;;;;;11.69;100.00;100204.25;5068986;28;20355;-63
2021/08/27 04:30:32;;;;;;;;;;;;;;;11.69;100.00;100206.09;5070720;28;20019;-63
2021/08/27 04:32:58;;;;;;;;;;;;;;;11.70;100.00;100210.53;5071433;28;20028;-63
2021/08/27 04:35:24;;;;;;;;;;;;;;;11.71;100.00;100212.25;5060717;28;19978;-62
2021/08/27 04:37:50;;;;;;;;;;;;;;;11.71;100.00;100204.94;5070622;28;20423;-66
2021/08/27 04:40:17;;;;;;;;;;;;;;;11.76;100.00;100206.38;5071572;28;19960;-64
2021/08/27 04:42:43;;;;;;;;;;;;;;;11.75;100.00;100205.50;5070625;28;20015;-64
2021/08/27 04:45:11;;;;;;;;;;;;;;;11.77;100.00;100206.25;5070219;28;20450;-72
2021/08/27 04:47:37;;;;;;;;;;;;;;;11.77;100.00;100205.38;5070748;28;19963;-63
2021/08/27 04:50:04;;;;;;;;;;;;;;;11.76;100.00;100199.09;5071235;28;19956;-64
2021/08/27 04:52:30;;;;;;;;;;;;;;;11.77;100.00;100208.09;5071338;28;19986;-65
2021/08/27 04:54:56;;;;;;;;;;;;;;;11.81;100.00;100212.22;5066940;28;19925;-65
2021/08/27 04:57:23;;;;;;;;;;;;;;;11.81;100.00;100202.22;5058515;28;19928;-65
2021/08/27 04:59:50;;;;;;;;;;;;;;;11.79;100.00;100209.66;5054789;28;20327;-65
2021/08/27 05:02:18;;;;;;;;;;;;;;;11.81;100.00;100204.94;5059822;28;19924;-64
2021/08/27 05:04:44;;;;;;;;;;;;;;;11.80;100.00;100207.78;5061574;28;20372;-73
2021/08/27 05:07:11;;;;;;;;;;;;;;;11.72;100.00;100212.09;5058857;28;20023;-68
2021/08/27 05:09:37;;;;;;;;;;;;;;;11.69;100.00;100208.81;5066500;28;19924;-67
2021/08/27 05:12:04;;;;;;;;;;;;;;;11.66;100.00;100209.09;5041907;28;19971;-67
2021/08/27 05:14:30;;;;;;;;;;;;;;;11.64;100.00;100216.56;5068328;28;19978;-66
2021/08/27 05:16:57;;;;;;;;;;;;;;;11.60;100.00;100218.69;5070964;28;20411;-68
2021/08/27 05:19:24;;;;;;;;;;;;;;;11.56;100.00;100215.41;5071131;28;20392;-66
2021/08/27 05:21:51;;;;;;;;;;;;;;;11.53;100.00;100221.13;5071208;28;20006;-67
2021/08/27 05:24:17;;;;;;;;;;;;;;;11.51;100.00;100216.84;5070828;28;20408;-73
2021/08/27 05:26:43;;;;;;;;;;;;;;;11.49;100.00;100222.44;5070939;28;19924;-72
2021/08/27 05:29:10;;;;;;;;;;;;;;;11.53;100.00;100226.56;5070377;28;19928;-71
2021/08/27 05:31:36;;;;;;;;;;;;;;;11.66;100.00;100220.81;5071107;28;19932;-71
2021/08/27 05:34:06;;;;;;;;;;;;;;;11.79;100.00;100225.13;5070985;28;19928;-63
2021/08/27 05:36:34;;;;;;;;;;;;;;;11.81;100.00;100221.25;5070046;28;19939;-63
2021/08/27 05:39:00;;;;;;;;;;;;;;;11.84;100.00;100223.69;5070418;28;19960;-64
2021/08/27 05:41:27;;;;;;;;;;;;;;;11.88;100.00;100225.09;5070472;28;20027;-64
2021/08/27 05:43:53;;;;;;;;;;;;;;;11.97;100.00;100225.25;5070819;28;20392;-64
2021/08/27 05:46:20;;;;;;;;;;;;;;;12.04;100.00;100223.69;5070194;28;19925;-64
2021/08/27 05:48:46;;;;;;;;;;;;;;;12.18;100.00;100236.81;5069719;28;19931;-64
2021/08/27 05:51:12;;;;;;;;;;;;;;;12.80;100.00;100232.72;5071003;28;20027;-64
2021/08/27 05:53:40;;;;;;;;;;;;;;;13.32;100.00;100230.25;5070798;28;20439;-64
2021/08/27 05:56:06;;;;;;;;;;;;;;;13.89;100.00;100226.34;5052378;28;20028;-66
2021/08/27 05:58:32;;;;;;;;;;;;;;;13.97;100.00;100222.84;5063969;28;20403;-65
2021/08/27 06:00:59;;;;;;;;;;;;;;;13.94;100.00;100217.72;5069936;28;19933;-66
2021/08/27 06:03:25;;;;;;;;;;;;;;;13.81;100.00;100218.09;5070536;28;20023;-69
2021/08/27 06:05:51;;;;;;;;;;;;;;;13.55;100.00;100218.91;5069256;28;19975;-69
2021/08/27 06:08:17;;;;;;;;;;;;;;;13.46;100.00;100217.97;5070163;28;20404;-69
2021/08/27 06:10:45;;;;;;;;;;;;;;;13.41;100.00;100223.03;5070423;28;19967;-69
2021/08/27 06:13:11;;;;;;;;;;;;;;;13.32;100.00;100229.38;5067482;28;20384;-69
2021/08/27 06:15:42;;;;;;;;;;;;;;;13.18;100.00;100228.06;5067639;28;20358;-69
2021/08/27 06:18:08;;;;;;;;;;;;;;;13.15;100.00;100231.94;5063177;28;20311;-68
2021/08/27 06:20:35;;;;;;;;;;;;;;;13.14;100.00;100240.28;5070117;28;20028;-68
2021/08/27 06:23:01;;;;;;;;;;;;;;;13.15;100.00;100239.28;5071440;28;20384;-68
2021/08/27 06:25:27;;;;;;;;;;;;;;;13.19;100.00;100238.78;5073050;28;20018;-68
2021/08/27 06:27:55;;;;;;;;;;;;;;;13.30;100.00;100245.88;5069735;28;19925;-67
2021/08/27 06:30:21;;;;;;;;;;;;;;;13.79;100.00;100244.69;5073232;28;20019;-63
2021/08/27 06:32:47;;;;;;;;;;;;;;;14.15;100.00;100241.88;5072680;28;19928;-63
2021/08/27 06:35:14;;;;;;;;;;;;;;;14.47;100.00;100235.78;5073328;28;20003;-69
2021/08/27 06:40:24;;;;;;;;;;;;;;;14.79;100.00;100234.28;5073745;28;19924;-72
2021/08/27 06:42:50;;;;;;;;;;;;;;;14.78;100.00;100232.56;5072507;28;20366;-64
2021/08/27 06:45:18;;;;;;;;;;;;;;;14.66;100.00;100228.41;5073154;28;19931;-65
2021/08/27 06:47:44;;;;;;;;;;;;;;;14.58;100.00;100237.38;5072442;28;20023;-62
2021/08/27 06:50:11;;;;;;;;;;;;;;;14.46;100.00;100236.81;5073263;28;20023;-62
2021/08/27 06:52:37;;;;;;;;;;;;;;;14.38;100.00;100242.22;5072655;28;20019;-62
2021/08/27 06:55:04;;;;;;;;;;;;;;;14.38;100.00;100240.34;5072582;28;20023;-62
2021/08/27 06:57:30;;;;;;;;;;;;;;;14.43;100.00;100241.72;5073201;28;20015;-62
2021/08/27 06:59:56;;;;;;;;;;;;;;;14.44;100.00;100238.81;5073097;28;20027;-62
2021/08/27 07:02:24;;;;;;;;;;;;;;;14.50;100.00;100240.94;5072580;28;19971;-62
2021/08/27 07:04:50;;;;;;;;;;;;;;;14.51;100.00;100237.19;5072429;28;20027;-62
2021/08/27 07:07:16;;;;;;;;;;;;;;;14.47;100.00;100248.56;5072697;28;20023;-72
2021/08/27 07:09:42;;;;;;;;;;;;;;;14.34;100.00;100247.13;5072506;28;20023;-72
2021/08/27 07:12:11;;;;;;;;;;;;;;;14.33;100.00;100247.31;5072238;28;20358;-73
2021/08/27 07:14:37;;;;;;;;;;;;;;;14.26;100.00;100244.38;5066062;28;19925;-73
2021/08/27 07:17:04;;;;;;;;;;;;;;;14.15;100.00;100252.81;5072207;28;19925;-72
2021/08/27 07:19:32;;;;;;;;;;;;;;;13.94;100.00;100254.03;5072338;28;20016;-72
2021/08/27 07:21:58;;;;;;;;;;;;;;;13.94;100.00;100258.63;5055856;28;20018;-73
2021/08/27 07:24:24;;;;;;;;;;;;;;;13.96;100.00;100270.22;5072389;28;20059;-73
2021/08/27 07:26:50;;;;;;;;;;;;;;;14.20;100.00;100264.97;5072218;28;20023;-73
2021/08/27 07:29:17;;;;;;;;;;;;;;;15.38;100.00;100245.22;5072483;28;20034;-72
2021/08/27 07:31:43;;;;;;;;;;;;;;;16.78;100.00;100233.28;5071283;28;19932;-64
2021/08/27 07:34:09;;;;;;;;;;;;;;;17.64;100.00;100229.78;5071478;28;19931;-65
2021/08/27 07:36:37;;;;;;;;;;;;;;;18.47;100.00;100219.75;5071608;28;20014;-65
2021/08/27 07:39:03;;;;;;;;;;;;;;;18.99;100.00;100222.63;5071837;28;19929;-65
2021/08/27 07:41:30;;;;;;;;;;;;;;;18.27;100.00;100224.97;5071996;28;19924;-65
2021/08/27 07:43:59;;;;;;;;;;;;;;;17.83;100.00;100223.78;5071579;28;20015;-65
2021/08/27 07:46:25;;;;;;;;;;;;;;;17.90;100.00;100235.75;5072109;28;19932;-65
2021/08/27 07:48:52;;;;;;;;;;;;;;;17.58;100.00;100236.84;5071803;28;20002;-72
2021/08/27 07:51:18;;;;;;;;;;;;;;;17.09;100.00;100235.28;5071865;28;19970;-69
2021/08/27 07:53:45;;;;;;;;;;;;;;;16.66;100.00;100243.81;5071704;28;20281;-69
2021/08/27 07:56:12;;;;;;;;;;;;;;;16.36;100.00;100243.53;5071712;28;20031;-65
2021/08/27 07:58:38;;;;;;;;;;;;;;;16.16;100.00;100251.25;5071472;28;20007;-65
2021/08/27 08:01:04;;;;;;;;;;;;;;;16.95;100.00;100238.75;5072052;28;19959;-66
2021/08/27 08:03:30;;;;;;;;;;;;;;;18.08;100.00;100237.34;5057843;28;19960;-66
2021/08/27 08:05:57;;;;;;;;;;;;;;;18.40;100.00;100240.81;5071169;28;20455;-70
2021/08/27 08:08:23;;;;;;;;;;;;;;;18.85;100.00;100229.81;5070452;28;19928;-69
2021/08/27 08:10:50;;;;;;;;;;;;;;;19.81;100.00;100231.59;5070912;28;20043;-69
2021/08/27 08:13:17;;;;;;;;;;;;;;;20.53;100.00;100232.38;5071216;28;20367;-69
2021/08/27 08:15:43;;;;;;;;;;;;;;;21.03;100.00;100230.34;5071057;28;20050;-69
2021/08/27 08:18:09;;;;;;;;;;;;;;;21.80;100.00;100229.31;5071072;28;20011;-67
2021/08/27 08:20:35;;;;;;;;;;;;;;;21.81;100.00;100231.84;5070544;28;19951;-72
2021/08/27 08:23:02;;;;;;;;;;;;;;;21.67;100.00;100225.47;5071281;28;20415;-71
2021/08/27 08:25:28;;;;;;;;;;;;;;;21.39;100.00;100237.47;5071150;28;19967;-69
2021/08/27 08:27:56;;;;;;;;;;;;;;;21.78;100.00;100237.81;5070825;28;20007;-70
2021/08/27 08:30:22;;;;;;;;;;;;;;;22.36;100.00;100239.13;5071175;28;19925;-69
2021/08/27 08:32:48;;;;;;;;;;;;;;;22.66;100.00;100239.50;5071570;28;20027;-69
2021/08/27 08:35:15;;;;;;;;;;;;;;;22.02;100.00;100241.00;5071160;28;20015;-70
2021/08/27 08:37:41;;;;;;;;;;;;;;;21.96;100.00;100245.47;5056199;28;19924;-71
2021/08/27 08:40:09;;;;;;;;;;;;;;;21.60;100.00;100243.09;5070427;28;19978;-67
2021/08/27 08:42:35;;;;;;;;;;;;;;;21.04;100.00;100247.72;5070143;28;19977;-69
2021/08/27 08:45:03;;;;;;;;;;;;;;;21.46;100.00;100248.53;5069499;28;20116;-67
2021/08/27 08:47:30;;;;;;;;;;;;;;;22.10;100.00;100249.09;5069854;28;19931;-67
2021/08/27 08:49:56;;;;;;;;;;;;;;;21.35;100.00;100247.25;5070528;28;19998;-66
2021/08/27 08:52:25;;;;;;;;;;;;;;;21.62;100.00;100249.22;5070744;28;20316;-67
2021/08/27 08:54:51;;;;;;;;;;;;;;;21.77;100.00;100244.38;5070579;28;20027;-67
2021/08/27 08:57:20;;;;;;;;;;;;;;;21.30;100.00;100246.13;5070824;28;20014;-67
2021/08/27 08:59:46;;;;;;;;;;;;;;;20.59;100.00;100253.63;5070421;28;20019;-67
2021/08/27 09:02:14;;;;;;;;;;;;;;;20.93;100.00;100256.59;5070250;28;20031;-67
2021/08/27 09:04:40;;;;;;;;;;;;;;;19.88;100.00;100260.03;5070370;28;19952;-67
2021/08/27 09:07:07;;;;;;;;;;;;;;;19.48;100.00;100260.47;5070749;28;19930;-67
2021/08/27 09:09:34;;;;;;;;;;;;;;;19.27;100.00;100255.75;5070954;28;20035;-69
2021/08/27 09:12:01;;;;;;;;;;;;;;;20.69;100.00;100258.81;5070321;28;19982;-68
2021/08/27 09:14:28;;;;;;;;;;;;;;;21.32;100.00;100255.91;5070699;28;19964;-72
2021/08/27 09:17:01;;;;;;;;;;;;;;;21.43;100.00;100256.38;5069173;28;20481;-72
2021/08/27 09:19:48;;;;;;;;;;;;;;;20.55;100.00;100258.69;5069118;28;19959;-66
2021/08/27 09:22:14;;;;;;;;;;;;;;;19.47;100.00;100272.50;5069265;28;20358;-66
2021/08/27 09:24:41;;;;;;;;;;;;;;;19.28;100.00;100271.22;5070183;28;20023;-66
2021/08/27 09:27:08;;;;;;;;;;;;;;;18.97;100.00;100274.22;5070975;28;19960;-66
2021/08/27 09:29:39;;;;;;;;;;;;;;;18.46;100.00;100277.66;5070372;28;19928;-69
2021/08/27 09:32:22;;;;;;;;;;;;;;;18.13;100.00;100277.97;5071387;28;19928;-69
2021/08/27 09:34:59;;;;;;;;;;;;;;;17.73;100.00;100286.31;5055196;28;19928;-69
2021/08/27 09:37:34;;;;;;;;;;;;;;;17.60;100.00;100286.91;5070611;28;19964;-70
2021/08/27 09:40:04;;;;;;;;;;;;;;;18.24;100.00;100283.03;5070910;28;19924;-70
2021/08/27 09:42:36;;;;;;;;;;;;;;;18.69;100.00;100296.81;5070218;28;19956;-69
2021/08/27 09:45:02;;;;;;;;;;;;;;;18.92;100.00;100293.16;5070617;28;20023;-69
2021/08/27 09:47:28;;;;;;;;;;;;;;;19.23;100.00;100302.06;5070227;28;19924;-66
2021/08/27 09:49:56;;;;;;;;;;;;;;;18.71;100.00;100303.84;5069800;28;20430;-66
2021/08/27 09:52:22;;;;;;;;;;;;;;;18.26;100.00;100316.66;5067166;28;20011;-68
2021/08/27 09:54:49;;;;;;;;;;;;;;;17.70;100.00;100311.38;5069812;28;19959;-71
2021/08/27 09:57:15;;;;;;;;;;;;;;;17.26;100.00;100315.56;5073313;28;20465;-71
2021/08/27 09:59:44;;;;;;;;;;;;;;;16.71;100.00;100325.47;5071345;28;20371;-71
2021/08/27 10:02:10;;;;;;;;;;;;;;;16.36;100.00;100341.28;5067217;28;19924;-70
2021/08/27 10:04:48;;;;;;;;;;;;;;;16.13;100.00;100341.09;5073366;28;19924;-66
2021/08/27 10:07:24;;;;;;;;;;;;;;;15.84;100.00;100337.81;5074504;28;19925;-65
2021/08/27 10:09:51;;;;;;;;;;;;;;;15.84;100.00;100350.66;5074282;28;19990;-66
2021/08/27 10:12:17;;;;;;;;;;;;;;;15.77;100.00;100347.72;5074311;28;19925;-66
2021/08/27 10:14:44;;;;;;;;;;;;;;;15.84;100.00;100353.41;5074341;28;20403;-68
2021/08/27 10:17:10;;;;;;;;;;;;;;;15.86;100.00;100337.66;5074160;28;19959;-69
2021/08/27 10:19:36;;;;;;;;;;;;;;;15.92;100.00;100344.34;5074056;28;19959;-69
2021/08/27 10:22:03;;;;;;;;;;;;;;;16.01;100.00;100344.19;5074341;28;19964;-66
2021/08/27 10:24:31;;;;;;;;;;;;;;;15.85;100.00;100341.44;5074145;28;20015;-66
2021/08/27 10:26:57;;;;;;;;;;;;;;;15.95;100.00;100342.09;5073931;28;20370;-70
2021/08/27 10:29:24;;;;;;;;;;;;;;;15.96;100.00;100343.00;5074158;28;19931;-71
2021/08/27 10:31:51;;;;;;;;;;;;;;;16.07;100.00;100339.91;5074096;28;19931;-71
2021/08/27 10:34:18;;;;;;;;;;;;;;;16.08;100.00;100340.78;5073990;28;20387;-71
2021/08/27 10:36:51;;;;;;;;;;;;;;;16.33;100.00;100347.13;5073408;28;20015;-69
2021/08/27 10:39:35;;;;;;;;;;;;;;;16.54;100.00;100341.97;5074150;28;19968;-68
2021/08/27 10:42:01;;;;;;;;;;;;;;;16.68;100.00;100334.91;5073793;28;20022;-69
2021/08/27 10:44:47;;;;;;;;;;;;;;;17.12;100.00;100341.00;5073687;28;19928;-69
2021/08/27 10:47:13;;;;;;;;;;;;;;;17.21;100.00;100335.31;5073528;28;20015;-69
2021/08/27 10:49:53;;;;;;;;;;;;;;;17.01;100.00;100339.47;5073878;28;20011;-66
2021/08/27 10:52:22;;;;;;;;;;;;;;;16.81;100.00;100337.13;5073769;28;20001;-71
2021/08/27 10:55:04;;;;;;;;;;;;;;;16.95;100.00;100337.44;5073124;28;20011;-66
2021/08/27 10:57:42;;;;;;;;;;;;;;;17.13;100.00;100338.09;5072886;28;19970;-66
2021/08/27 11:00:09;;;;;;;;;;;;;;;17.11;100.00;100342.88;5073599;28;19925;-66
2021/08/27 11:02:50;;;;;;;;;;;;;;;17.31;100.00;100350.69;5073666;28;19934;-66
2021/08/27 11:05:30;;;;;;;;;;;;;;;17.64;100.00;100336.81;5073408;28;19925;-66
2021/08/27 11:07:59;;;;;;;;;;;;;;;17.86;100.00;100341.44;5072278;28;19968;-66
2021/08/27 11:10:26;;;;;;;;;;;;;;;19.00;100.00;100339.81;5073055;28;20277;-66
2021/08/27 11:12:58;;;;;;;;;;;;;;;19.00;100.00;100335.19;5073155;28;19924;-66
2021/08/27 11:15:26;;;;;;;;;;;;;;;18.83;100.00;100339.97;5073090;28;20010;-66
2021/08/27 11:18:05;;;;;;;;;;;;;;;18.59;100.00;100341.09;5072763;28;20359;-70
2021/08/27 11:20:31;;;;;;;;;;;;;;;18.31;100.00;100344.41;5073131;28;19931;-70
2021/08/27 11:22:57;;;;;;;;;;;;;;;18.29;100.00;100345.66;5073014;28;20023;-66
2021/08/27 11:25:24;;;;;;;;;;;;;;;18.13;100.00;100344.75;5073107;28;19925;-66
2021/08/27 11:28:09;;;;;;;;;;;;;;;18.42;100.00;100348.63;5072567;28;19929;-69
2021/08/27 11:30:37;;;;;;;;;;;;;;;18.70;100.00;100346.13;5072927;28;19928;-70
2021/08/27 11:33:03;;;;;;;;;;;;;;;18.26;100.00;100346.03;5072755;28;20352;-70
2021/08/27 11:35:30;;;;;;;;;;;;;;;17.83;100.00;100358.28;5072688;28;19924;-69
2021/08/27 11:37:57;;;;;;;;;;;;;;;17.17;100.00;100358.63;5072514;28;20354;-70
2021/08/27 11:40:24;;;;;;;;;;;;;;;16.84;100.00;100377.88;5072825;28;19925;-69
2021/08/27 11:42:53;;;;;;;;;;;;;;;16.40;100.00;100372.78;5072583;28;20456;-69
2021/08/27 11:45:21;;;;;;;;;;;;;;;16.15;100.00;100380.97;5072383;28;19924;-68
2021/08/27 11:47:50;;;;;;;;;;;;;;;15.98;100.00;100382.84;5072437;28;19924;-68
2021/08/27 11:50:21;;;;;;;;;;;;;;;16.10;100.00;100397.06;5071342;28;19936;-68
2021/08/27 11:52:48;;;;;;;;;;;;;;;15.96;100.00;100398.56;5072554;28;19924;-68
2021/08/27 11:55:16;;;;;;;;;;;;;;;16.02;100.00;100394.31;5072187;28;20027;-68
2021/08/27 11:57:50;;;;;;;;;;;;;;;16.23;100.00;100391.09;5072334;28;19924;-68
2021/08/27 12:00:16;;;;;;;;;;;;;;;16.86;100.00;100395.00;5072211;28;20015;-68
2021/08/27 12:02:43;;;;;;;;;;;;;;;16.78;100.00;100385.94;5072403;28;19929;-68
2021/08/27 12:05:12;;;;;;;;;;;;;;;16.62;100.00;100400.50;5072081;28;20031;-68
2021/08/27 12:07:48;;;;;;;;;;;;;;;16.22;100.00;100390.25;5071794;28;19947;-68
2021/08/27 12:10:14;;;;;;;;;;;;;;;15.84;100.00;100400.75;5072150;28;20404;-70
2021/08/27 12:12:41;;;;;;;;;;;;;;;15.63;100.00;100406.66;5072000;28;20023;-70
2021/08/27 12:15:09;;;;;;;;;;;;;;;15.72;100.00;100416.59;5072104;28;19924;-70
2021/08/27 12:17:35;;;;;;;;;;;;;;;15.83;100.00;100423.72;5071715;28;19970;-65
2021/08/27 12:20:05;;;;;;;;;;;;;;;16.04;100.00;100427.84;5072084;28;19925;-65
2021/08/27 12:22:37;;;;;;;;;;;;;;;16.03;100.00;100417.91;5071512;28;20371;-66
2021/08/27 12:25:04;;;;;;;;;;;;;;;16.73;100.00;100417.47;5071677;28;19925;-65
2021/08/27 12:27:30;;;;;;;;;;;;;;;18.00;100.00;100410.41;5071901;28;19979;-65
2021/08/27 12:30:08;;;;;;;;;;;;;;;18.47;100.00;100389.28;5071768;28;20307;-66
2021/08/27 12:32:35;;;;;;;;;;;;;;;18.83;100.00;100386.72;5071797;28;19925;-66
2021/08/27 12:35:01;;;;;;;;;;;;;;;19.30;100.00;100394.84;5071376;28;20011;-66